Weather at Hannover Airport

Public forecast

Using degrees Celsius for public forecast. Weather courtesy of forecast.io.

Current aviation weather report (METAR) for Hannover Airport

2024/05/30 22:50 (retrieved 25 minutes ago)

EDDV 302250Z AUTO 27007KT 240V300 9999 SHRA FEW044 FEW///CB 13/13 Q1006

Aviation forecast (TAF) for Hannover Airport

2024/05/30 18:27 (retrieved 5 hours ago)

TAF TAF EDDV 301700Z 3018/3118 32004KT 9999 BKN025 TEMPO 3018/3020 SHRA BKN020CB TEMPO 3020/3107 2000 RA BKN004 PROB30 TEMPO 3111/3117 SHRA BKN025CB